Share

Ankara Etimesgut Air Base, Turkey

Cayyolu (IANKARAA7) Elev 3114 ft | 39.87 °N, 32.67 °E | Change Station

Current weather conditions updated 1 second ago

Scattered Clouds
Scattered Clouds
71.6 °F
Feels Like 76 °F
N
0.0
Wind Variable Wind from SSE
Gusts 3.0 mph
Sunrise 6:06 AM
Sunset 7:31 PM
Moon Waning Gibbous

Today is forecast to be nearly the same temperature as yesterday.

Pressure 29.83 in
Visibility 6.2 miles
Clouds Few 3000 ft
Scattered Clouds 4000 ft
Heat Index 76 °F
Dew Point 37 °F
Humidity 28%
Rainfall 0.00 in
Snow Depth Not available.
UV 6 out of 16
Pollen Not available.
Air Quality Not available.
Flu Activity Not available.
METAR LTAC 191150Z 19009KT 160V220 9999 FEW030CB SCT040 19/M01 Q1010 TEMPO FM1300 23020G30KT -TSRA

More Conditions Fewer Conditions

Pressure 29.83 in
Visibility 6.2 miles
Clouds Few 3000 ft
Scattered Clouds 4000 ft
Heat Index 76 °F
Dew Point 37 °F
Humidity 28%
Rainfall 0.00 in
Snow Depth Not available.
UV 6 out of 16
Pollen Not available.
Air Quality Not available.
Flu Activity Not available.
METAR LTAC 191150Z 19009KT 160V220 9999 FEW030CB SCT040 19/M01 Q1010 TEMPO FM1300 23020G30KT -TSRA

More Conditions Fewer Conditions

10-Day Weather Forecast

Almanac

Astronomy

Apr. 19, 2014 Rise Set
Actual Time 6:06 AM EEST 7:31 PM EEST
Civil Twilight 5:37 AM EEST 7:59 PM EEST
Nautical Twilight 5:03 AM EEST 8:33 PM EEST
Astronomical Twilight 4:28 AM EEST 9:09 PM EEST
Moon 11:53 PM EEST 9:04 AM EEST
Length of Visible Light 14h 21m
Length of Day
13h 25m
Tomorrow will be 2m 28s longer.
Waning Gibbous, 80% of the Moon is Illuminated
Today
Waning Gibbous
Apr 22
Last Quarter
Apr 29
New
May 6
First Quarter
May 14
Full

Yesterday's Extremes

Country Highs Country Lows

Community

  • Bleeding Hearts
    Bleeding Hearts
  • Sunset Silhouettes
    Sunset Silhouettes
  • FL sunset Perico Isle
    FL sunset Perico Isle
  • Cloudy spring view
    Cloudy spring view
  • Old barn
    Old barn

WunderPhotos

Upload Photos

1,702,687 photos uploaded!

Nearby

Snow Depth

Not available.

Coastal Water Temperatures

Place Temperature
No Stations Reporting

Earthquake Activity

City Distance Mag. Time & Date
No recent earthquake activity has been reported nearby.
Minimum magnitude displayed is 2.5.

Nearby Weather Stations

Station Location Temp. Heat Index Dew Point Humidity Wind Precip. Elev Updated Type
Cayyolu, Ankara 71.6 °F 76 °F 37 °F 28% SSE  at  0.0 mph 0.00 in / hr 3114 ft 3:01 PM EEST Rapid Fire

Show More Stations Show Fewer Stations

What do you think?

We're not finished. Please let us know what you like, what you don't like, and what you are still missing.